Port Charlotte, Florida
Current Conditions -  °F | °C
As of 9:53 PM on Wednesday 24 Dec 2014 (Local Time) from KPGD Reporting Station
Moderate Rain Moderate Rain  
Wind Chill: 71°   Ceiling: 2600
Heat Index: 71°   Visibility: 6mi
Dew Point: 69°   Wind: 14mph
Humidity: 93%   Direction: 300°WNW
Pressure: 29.98"   Gusts: NA
Location:  26.98°N, 82.1°W
Report Text: KPGD 250253Z AUTO 30012KT 6SM RA BR FEW011 BKN026 OVC075 22/21 A2998 RMK AO2 WSHFT 0231 RAB42 SLP153 P0002 60002 T02170206 53014
Loading
Personal Weather Stations






























Interactive Weather Map New forecast layout! Learn more

10-Day Weather Forecast

Advertisements
Track Severe Weather on mobile